createdAt,value
2023-09-03T00:00:58.806Z,19.94
2023-09-03T00:03:26.514Z,19.94
2023-09-03T00:05:58.072Z,19.93
2023-09-03T00:08:28.506Z,19.93
2023-09-03T00:10:56.468Z,19.90
2023-09-03T00:13:24.236Z,19.91
2023-09-03T00:15:52.349Z,19.88
2023-09-03T00:18:20.614Z,19.90
2023-09-03T00:20:57.035Z,19.87
2023-09-03T00:23:25.200Z,19.81
2023-09-03T00:25:53.368Z,19.81
2023-09-03T00:28:21.595Z,19.83
2023-09-03T00:31:03.359Z,19.83
2023-09-03T00:33:31.947Z,19.78
2023-09-03T00:36:02.516Z,19.76
2023-09-03T00:38:30.504Z,19.73
2023-09-03T00:40:58.904Z,19.74
2023-09-03T00:43:28.757Z,19.70
2023-09-03T00:45:56.761Z,19.71
2023-09-03T00:48:28.294Z,19.69
2023-09-03T00:51:03.329Z,19.71
2023-09-03T00:53:34.762Z,19.71
2023-09-03T00:56:03.192Z,19.69
2023-09-03T00:58:31.587Z,19.60
2023-09-03T01:00:59.904Z,19.42
2023-09-03T01:03:28.147Z,19.23
2023-09-03T01:05:56.232Z,19.14
2023-09-03T01:08:24.906Z,19.11
2023-09-03T01:11:29.894Z,19.12
2023-09-03T01:14:01.723Z,19.04
2023-09-03T01:16:34.800Z,19.02
2023-09-03T01:19:10.366Z,18.98
2023-09-03T01:21:56.312Z,18.98
2023-09-03T01:24:36.007Z,18.95
2023-09-03T01:27:18.635Z,18.97
2023-09-03T01:29:47.323Z,19.05
2023-09-03T01:32:15.940Z,19.07
2023-09-03T01:34:45.393Z,19.12
2023-09-03T01:37:14.190Z,19.16
2023-09-03T01:39:41.853Z,19.16
2023-09-03T01:42:09.541Z,19.08
2023-09-03T01:44:37.858Z,19.01
2023-09-03T01:47:31.519Z,18.94
2023-09-03T01:50:50.889Z,18.87
2023-09-03T01:53:27.487Z,18.81
2023-09-03T01:55:58.753Z,18.80
2023-09-03T01:58:31.572Z,18.77
2023-09-03T02:01:02.228Z,18.80
2023-09-03T02:03:31.614Z,18.76
2023-09-03T02:05:59.356Z,18.74
2023-09-03T02:08:27.036Z,18.76
2023-09-03T02:10:54.815Z,18.68
2023-09-03T02:13:23.000Z,18.61
2023-09-03T02:15:51.562Z,18.56
2023-09-03T02:18:19.985Z,18.52
2023-09-03T02:20:48.288Z,18.55
2023-09-03T02:23:17.452Z,18.60
2023-09-03T02:25:47.966Z,18.67
2023-09-03T02:28:16.059Z,18.73
2023-09-03T02:30:44.038Z,18.77
2023-09-03T02:33:12.027Z,18.85
2023-09-03T02:35:39.929Z,18.85
2023-09-03T02:38:07.836Z,18.90
2023-09-03T02:40:35.884Z,18.93
2023-09-03T02:43:05.902Z,18.98
2023-09-03T02:45:33.802Z,19.04
2023-09-03T02:48:02.639Z,19.05
2023-09-03T02:50:30.593Z,19.08
2023-09-03T02:52:58.689Z,19.07
2023-09-03T02:55:26.684Z,19.05
2023-09-03T02:57:54.614Z,19.07
2023-09-03T03:00:24.564Z,19.10
2023-09-03T03:02:53.678Z,19.08
2023-09-03T03:05:21.677Z,19.14
2023-09-03T03:07:49.609Z,19.14
2023-09-03T03:10:18.650Z,19.10
2023-09-03T03:12:46.583Z,19.07
2023-09-03T03:15:14.676Z,19.05
2023-09-03T03:17:42.545Z,19.04
2023-09-03T03:20:10.912Z,19.00
2023-09-03T03:22:38.505Z,19.01
2023-09-03T03:25:06.787Z,19.02
2023-09-03T03:27:35.747Z,19.07
2023-09-03T03:30:03.719Z,19.08
2023-09-03T03:32:32.494Z,19.11
2023-09-03T03:35:00.378Z,19.05
2023-09-03T03:37:28.043Z,19.05
2023-09-03T03:39:55.783Z,19.05
2023-09-03T03:42:23.479Z,19.05
2023-09-03T03:44:51.109Z,19.10
2023-09-03T03:47:18.729Z,19.10
2023-09-03T03:49:46.380Z,19.12
2023-09-03T03:52:14.080Z,19.12
2023-09-03T03:54:41.760Z,19.10
2023-09-03T03:57:09.410Z,19.12
2023-09-03T03:59:37.807Z,19.14
2023-09-03T04:02:05.690Z,19.19
2023-09-03T04:04:33.402Z,19.26
2023-09-03T04:07:01.041Z,19.32
2023-09-03T04:09:28.611Z,19.35
2023-09-03T04:11:57.826Z,19.29
2023-09-03T04:14:25.502Z,19.23
2023-09-03T04:16:53.387Z,19.28
2023-09-03T04:19:21.362Z,19.26
2023-09-03T04:21:49.368Z,19.32
2023-09-03T04:24:17.282Z,19.33
2023-09-03T04:26:45.277Z,19.40
2023-09-03T04:29:13.282Z,19.39
2023-09-03T04:31:41.876Z,19.36
2023-09-03T04:34:10.187Z,19.31
2023-09-03T04:36:38.040Z,19.33
2023-09-03T04:39:06.395Z,19.42
2023-09-03T04:41:34.531Z,19.49
2023-09-03T04:44:10.306Z,19.53
2023-09-03T04:46:38.640Z,19.56
2023-09-03T04:49:06.532Z,19.57
2023-09-03T04:51:36.329Z,19.60
2023-09-03T04:54:04.574Z,19.60
2023-09-03T04:56:32.510Z,19.56
2023-09-03T04:59:00.419Z,19.59
2023-09-03T05:01:28.575Z,19.65
2023-09-03T05:03:56.515Z,19.70
2023-09-03T05:06:26.893Z,19.76
2023-09-03T05:08:54.742Z,19.80
2023-09-03T05:11:22.669Z,19.81
2023-09-03T05:13:50.659Z,19.81
2023-09-03T05:16:18.893Z,19.83
2023-09-03T05:18:46.893Z,19.83
2023-09-03T05:21:14.976Z,19.81
2023-09-03T05:23:47.910Z,19.77
2023-09-03T05:26:15.919Z,19.59
2023-09-03T05:28:43.836Z,19.43
2023-09-03T05:31:11.914Z,19.28
2023-09-03T05:33:41.025Z,19.15
2023-09-03T05:36:12.448Z,19.00
2023-09-03T05:38:44.401Z,18.90
2023-09-03T05:41:14.282Z,18.84
2023-09-03T05:43:42.175Z,18.83
2023-09-03T05:46:10.279Z,18.80
2023-09-03T05:48:38.431Z,18.81
2023-09-03T05:51:06.868Z,18.83
2023-09-03T05:53:35.260Z,18.77
2023-09-03T05:56:10.743Z,18.60
2023-09-03T05:58:39.624Z,18.40
2023-09-03T06:01:10.080Z,18.26
2023-09-03T06:03:39.888Z,18.19
2023-09-03T06:06:12.141Z,18.18
2023-09-03T06:08:40.152Z,18.18
2023-09-03T06:11:09.636Z,18.15
2023-09-03T06:13:38.270Z,18.16
2023-09-03T06:16:06.167Z,18.21
2023-09-03T06:18:34.194Z,18.24
2023-09-03T06:21:02.303Z,18.29
2023-09-03T06:23:30.156Z,18.26
2023-09-03T06:25:58.121Z,18.32
2023-09-03T06:28:29.558Z,18.36
2023-09-03T06:31:02.705Z,18.45
2023-09-03T06:33:31.935Z,18.64
2023-09-03T06:35:59.801Z,18.85
2023-09-03T06:38:27.736Z,19.11
2023-09-03T06:40:55.575Z,19.28
2023-09-03T06:43:23.459Z,19.45
2023-09-03T06:45:51.408Z,19.49
2023-09-03T06:48:19.968Z,19.45
2023-09-03T06:50:49.664Z,19.36
2023-09-03T06:53:17.683Z,19.33
2023-09-03T06:55:49.064Z,19.26
2023-09-03T06:58:17.019Z,19.35
2023-09-03T07:00:46.282Z,19.45
2023-09-03T07:03:16.055Z,19.55
2023-09-03T07:05:43.983Z,19.63
2023-09-03T07:08:11.933Z,19.73
2023-09-03T07:10:39.713Z,19.81
2023-09-03T07:13:09.990Z,19.77
2023-09-03T07:15:38.054Z,19.74
2023-09-03T07:18:06.307Z,19.69
2023-09-03T07:20:34.062Z,19.59
2023-09-03T07:23:01.945Z,19.50
2023-09-03T07:25:36.577Z,19.46
2023-09-03T07:28:04.714Z,19.43
2023-09-03T07:30:32.718Z,19.45
2023-09-03T07:33:00.445Z,19.45
2023-09-03T07:35:32.197Z,19.45
2023-09-03T07:37:59.964Z,19.45
2023-09-03T07:40:28.818Z,19.40
2023-09-03T07:42:56.471Z,19.46
2023-09-03T07:45:24.555Z,19.59
2023-09-03T07:47:52.466Z,19.76
2023-09-03T07:50:20.193Z,20.04
2023-09-03T07:52:47.810Z,20.20
2023-09-03T07:55:17.159Z,20.28
2023-09-03T07:57:45.034Z,20.43
2023-09-03T08:00:14.195Z,20.53
2023-09-03T08:02:41.994Z,20.65
2023-09-03T08:05:13.245Z,20.70
2023-09-03T08:07:41.012Z,20.84
2023-09-03T08:10:09.296Z,21.00
2023-09-03T08:12:37.004Z,21.21
2023-09-03T08:15:04.943Z,21.52
2023-09-03T08:17:33.882Z,21.87
2023-09-03T08:20:03.874Z,22.24
2023-09-03T08:22:32.989Z,22.42
2023-09-03T08:25:00.619Z,22.37
2023-09-03T08:27:28.214Z,22.21
2023-09-03T08:29:55.910Z,22.05
2023-09-03T08:32:24.041Z,21.92
2023-09-03T08:34:53.272Z,21.87
2023-09-03T08:37:21.310Z,21.90
2023-09-03T08:39:49.053Z,21.92
2023-09-03T08:42:17.156Z,21.96
2023-09-03T08:44:50.848Z,21.96
2023-09-03T08:47:18.923Z,21.94
2023-09-03T08:49:47.108Z,22.01
2023-09-03T08:52:17.376Z,22.13
2023-09-03T08:54:45.168Z,22.20
2023-09-03T08:57:13.487Z,22.24
2023-09-03T08:59:41.580Z,22.41
2023-09-03T09:02:14.256Z,22.62
2023-09-03T09:04:42.280Z,22.65
2023-09-03T09:07:11.270Z,22.79
2023-09-03T09:09:39.685Z,22.85
2023-09-03T09:12:29.712Z,22.80
2023-09-03T09:15:03.272Z,22.89
2023-09-03T09:17:38.295Z,23.13
2023-09-03T09:20:10.796Z,23.14
2023-09-03T09:22:43.157Z,23.13
2023-09-03T09:25:18.843Z,23.06
2023-09-03T09:27:47.850Z,23.20
2023-09-03T09:30:20.678Z,23.59
2023-09-03T09:32:49.273Z,24.07
2023-09-03T09:35:26.768Z,24.47
2023-09-03T09:37:54.440Z,24.90
2023-09-03T09:40:31.624Z,25.33
2023-09-03T09:43:02.280Z,25.54
2023-09-03T09:45:30.037Z,25.89
2023-09-03T09:48:08.711Z,26.36
2023-09-03T09:50:44.295Z,26.75
2023-09-03T09:53:28.492Z,27.15
2023-09-03T09:56:04.496Z,27.53
2023-09-03T09:58:39.957Z,27.84
2023-09-03T10:01:09.977Z,28.06
2023-09-03T10:03:50.951Z,28.29
2023-09-03T10:06:22.034Z,28.43
2023-09-03T10:08:52.989Z,28.86
2023-09-03T10:11:21.757Z,29.30
2023-09-03T10:13:50.484Z,29.76
2023-09-03T10:16:22.876Z,30.26
2023-09-03T10:18:52.057Z,30.91
2023-09-03T10:21:46.609Z,31.25
2023-09-03T10:24:20.591Z,31.47
2023-09-03T10:26:54.374Z,31.58
2023-09-03T10:29:24.897Z,31.72
2023-09-03T10:31:54.848Z,31.97
2023-09-03T10:34:23.008Z,32.04
2023-09-03T10:37:06.999Z,32.20
2023-09-03T10:39:36.544Z,32.31
2023-09-03T10:42:16.808Z,32.35
2023-09-03T10:44:55.758Z,32.65
2023-09-03T10:47:24.059Z,32.82
2023-09-03T10:49:53.837Z,32.96
2023-09-03T10:52:28.536Z,33.23
2023-09-03T10:55:17.469Z,33.26
2023-09-03T10:57:47.484Z,33.55
2023-09-03T11:00:18.336Z,33.98
2023-09-03T11:02:50.274Z,34.27
2023-09-03T11:05:27.939Z,34.43
2023-09-03T11:08:31.027Z,34.26
2023-09-03T11:11:00.567Z,34.45
2023-09-03T11:13:38.226Z,34.72
2023-09-03T11:16:07.003Z,34.78
2023-09-03T11:18:35.230Z,34.07
2023-09-03T11:21:03.389Z,33.59
2023-09-03T11:23:35.163Z,33.86
2023-09-03T11:26:07.308Z,34.28
2023-09-03T11:28:38.625Z,34.62
2023-09-03T11:31:06.750Z,34.71
2023-09-03T11:33:34.965Z,35.08
2023-09-03T11:36:02.950Z,35.64
2023-09-03T11:38:31.931Z,36.01
2023-09-03T11:41:00.585Z,36.24
2023-09-03T11:43:30.672Z,36.33
2023-09-03T11:46:05.371Z,36.49
2023-09-03T11:48:33.931Z,36.69
2023-09-03T11:51:21.860Z,36.77
2023-09-03T11:53:50.805Z,36.59
2023-09-03T11:56:21.898Z,36.47
2023-09-03T11:58:54.194Z,36.71
2023-09-03T12:01:22.476Z,37.26
2023-09-03T12:03:50.900Z,37.72
2023-09-03T12:06:19.791Z,37.66
2023-09-03T12:08:47.765Z,37.65
2023-09-03T12:11:15.865Z,38.01
2023-09-03T12:13:45.745Z,38.44
2023-09-03T12:16:17.353Z,38.84
2023-09-03T12:18:59.807Z,38.90
2023-09-03T12:21:38.339Z,38.61
2023-09-03T12:24:08.137Z,38.27
2023-09-03T12:26:37.438Z,38.38
2023-09-03T12:29:19.212Z,38.93
2023-09-03T12:31:47.380Z,39.44
2023-09-03T12:34:36.054Z,39.25
2023-09-03T12:37:05.258Z,38.92
2023-09-03T12:39:43.427Z,38.78
2023-09-03T12:42:12.089Z,38.59
2023-09-03T12:44:44.351Z,38.24
2023-09-03T12:47:12.431Z,37.69
2023-09-03T12:49:40.326Z,37.08
2023-09-03T12:52:08.211Z,36.43
2023-09-03T12:54:36.206Z,35.82
2023-09-03T12:57:04.097Z,35.08
2023-09-03T12:59:32.034Z,34.48
2023-09-03T13:01:59.970Z,33.86
2023-09-03T13:04:27.884Z,33.26
2023-09-03T13:06:55.665Z,32.73
2023-09-03T13:09:23.498Z,32.24
2023-09-03T13:11:51.488Z,31.62
2023-09-03T13:14:19.337Z,31.07
2023-09-03T13:16:47.256Z,30.63
2023-09-03T13:19:15.001Z,30.47
2023-09-03T13:21:42.747Z,30.47
2023-09-03T13:24:10.536Z,30.36
2023-09-03T13:26:38.513Z,30.36
2023-09-03T13:29:06.182Z,30.33
2023-09-03T13:31:34.091Z,29.97
2023-09-03T13:34:04.535Z,29.59
2023-09-03T13:36:32.327Z,29.47
2023-09-03T13:39:00.755Z,29.57
2023-09-03T13:41:28.648Z,29.59
2023-09-03T13:43:59.597Z,29.42
2023-09-03T13:46:27.928Z,29.07
2023-09-03T13:48:56.594Z,28.72
2023-09-03T13:51:24.286Z,28.33
2023-09-03T13:53:54.868Z,28.19
2023-09-03T13:56:22.576Z,28.54
2023-09-03T13:58:50.279Z,28.82
2023-09-03T14:01:19.383Z,29.04
2023-09-03T14:03:49.043Z,29.30
2023-09-03T14:06:17.916Z,29.53
2023-09-03T14:08:45.621Z,29.47
2023-09-03T14:11:13.369Z,29.22
2023-09-03T14:13:41.174Z,28.87
2023-09-03T14:16:15.536Z,28.64
2023-09-03T14:18:44.136Z,28.37
2023-09-03T14:21:11.777Z,28.13
2023-09-03T14:23:39.421Z,28.09
2023-09-03T14:26:14.056Z,27.99
2023-09-03T14:28:41.771Z,27.84
2023-09-03T14:31:09.397Z,27.50
2023-09-03T14:33:37.285Z,27.23
2023-09-03T14:36:05.289Z,26.91
2023-09-03T14:38:32.879Z,26.77
2023-09-03T14:41:00.564Z,26.78
2023-09-03T14:43:34.540Z,26.62
2023-09-03T14:46:02.747Z,26.45
2023-09-03T14:48:30.547Z,26.29
2023-09-03T14:50:58.697Z,26.13
2023-09-03T14:53:26.336Z,25.98
2023-09-03T14:55:53.973Z,25.85
2023-09-03T14:58:24.884Z,25.75
2023-09-03T15:00:52.694Z,25.55
2023-09-03T15:03:20.390Z,25.34
2023-09-03T15:05:48.220Z,25.17
2023-09-03T15:08:16.278Z,25.00
2023-09-03T15:10:43.951Z,24.89
2023-09-03T15:13:21.663Z,24.73
2023-09-03T15:15:51.564Z,24.64
2023-09-03T15:18:29.332Z,24.54
2023-09-03T15:20:57.359Z,24.37
2023-09-03T15:23:26.097Z,24.21
2023-09-03T15:25:54.299Z,24.18
2023-09-03T15:28:23.260Z,24.12
2023-09-03T15:30:52.025Z,24.03
2023-09-03T15:33:20.205Z,23.92
2023-09-03T15:35:48.158Z,23.86
2023-09-03T15:38:17.288Z,23.83
2023-09-03T15:40:45.292Z,23.72
2023-09-03T15:43:13.434Z,23.61
2023-09-03T15:45:41.896Z,23.47
2023-09-03T15:48:10.490Z,23.42
2023-09-03T15:50:42.844Z,23.35
2023-09-03T15:53:11.737Z,23.20
2023-09-03T15:55:41.067Z,22.87
2023-09-03T15:58:09.720Z,22.60
2023-09-03T16:00:39.809Z,22.42
2023-09-03T16:03:09.003Z,22.34
2023-09-03T16:05:37.018Z,22.25
2023-09-03T16:08:05.187Z,22.21
2023-09-03T16:10:38.461Z,22.18
2023-09-03T16:13:08.562Z,22.21
2023-09-03T16:15:44.156Z,22.11
2023-09-03T16:18:17.246Z,22.03
2023-09-03T16:20:45.187Z,21.94
2023-09-03T16:23:12.798Z,21.85
2023-09-03T16:25:40.487Z,21.70
2023-09-03T16:28:08.326Z,21.62
2023-09-03T16:30:36.041Z,21.50
2023-09-03T16:33:03.928Z,21.39
2023-09-03T16:35:33.847Z,21.30
2023-09-03T16:38:01.509Z,21.14
2023-09-03T16:40:32.254Z,21.01
2023-09-03T16:43:02.476Z,20.94
2023-09-03T16:45:30.093Z,20.87
2023-09-03T16:47:57.734Z,20.83
2023-09-03T16:50:25.347Z,20.77
2023-09-03T16:52:53.007Z,20.72
2023-09-03T16:55:20.607Z,20.67
2023-09-03T16:57:48.213Z,20.63
2023-09-03T17:00:15.977Z,20.65
2023-09-03T17:02:43.742Z,20.66
2023-09-03T17:05:11.415Z,20.65
2023-09-03T17:07:39.596Z,20.53
2023-09-03T17:10:08.692Z,20.43
2023-09-03T17:12:36.491Z,20.35
2023-09-03T17:15:04.332Z,20.28
2023-09-03T17:17:33.300Z,20.21
2023-09-03T17:20:01.564Z,20.14
2023-09-03T17:22:31.333Z,20.14
2023-09-03T17:24:58.915Z,20.14
2023-09-03T17:27:26.540Z,20.12
2023-09-03T17:29:55.667Z,20.08
2023-09-03T17:32:23.360Z,20.07
2023-09-03T17:34:52.959Z,20.10
2023-09-03T17:37:21.189Z,20.11
2023-09-03T17:39:48.783Z,20.11
2023-09-03T17:42:17.976Z,20.08
2023-09-03T17:44:46.677Z,20.04
2023-09-03T17:47:14.316Z,19.94
2023-09-03T17:49:42.294Z,19.83
2023-09-03T17:52:09.931Z,19.80
2023-09-03T17:54:37.579Z,19.74
2023-09-03T17:57:06.608Z,19.71
2023-09-03T17:59:34.312Z,19.73
2023-09-03T18:02:05.816Z,19.69
2023-09-03T18:04:36.739Z,19.67
2023-09-03T18:07:04.782Z,19.67
2023-09-03T18:09:32.604Z,19.66
2023-09-03T18:12:00.585Z,19.69
2023-09-03T18:14:28.790Z,19.73
2023-09-03T18:16:56.684Z,19.81
2023-09-03T18:19:24.350Z,19.88
2023-09-03T18:21:52.097Z,19.94
2023-09-03T18:24:20.012Z,20.01
2023-09-03T18:26:47.705Z,20.04
2023-09-03T18:29:15.352Z,19.98
2023-09-03T18:31:42.997Z,19.93
2023-09-03T18:34:10.611Z,19.90
2023-09-03T18:36:38.314Z,19.87
2023-09-03T18:39:06.248Z,19.84
2023-09-03T18:41:33.856Z,19.84
2023-09-03T18:44:01.466Z,19.81
2023-09-03T18:46:29.263Z,19.84
2023-09-03T18:48:57.536Z,19.84
2023-09-03T18:51:25.146Z,19.78
2023-09-03T18:53:52.796Z,19.78
2023-09-03T18:56:20.555Z,19.76
2023-09-03T18:58:48.194Z,19.74
2023-09-03T19:01:18.514Z,19.73
2023-09-03T19:03:48.851Z,19.69
2023-09-03T19:06:20.416Z,19.65
2023-09-03T19:08:48.534Z,19.63
2023-09-03T19:11:16.261Z,19.59
2023-09-03T19:13:43.911Z,19.56
2023-09-03T19:16:21.496Z,19.49
2023-09-03T19:18:49.867Z,19.43
2023-09-03T19:21:17.808Z,19.39
2023-09-03T19:23:45.608Z,19.32
2023-09-03T19:26:14.582Z,19.29
2023-09-03T19:28:43.001Z,19.28
2023-09-03T19:31:11.297Z,19.21
2023-09-03T19:33:39.321Z,19.14
2023-09-03T19:36:07.387Z,19.07
2023-09-03T19:38:35.923Z,19.04
2023-09-03T19:41:03.895Z,18.98
2023-09-03T19:43:31.789Z,18.95
2023-09-03T19:46:01.630Z,18.93
2023-09-03T19:48:35.356Z,18.93
2023-09-03T19:51:03.855Z,18.91
2023-09-03T19:53:33.082Z,18.93
2023-09-03T19:56:12.272Z,18.94
2023-09-03T19:58:40.310Z,18.97
2023-09-03T20:01:08.469Z,19.07
2023-09-03T20:03:36.573Z,19.12
2023-09-03T20:06:04.695Z,19.14
2023-09-03T20:08:33.281Z,19.15
2023-09-03T20:11:06.130Z,19.16
2023-09-03T20:13:34.303Z,19.21
2023-09-03T20:16:03.892Z,19.23
2023-09-03T20:18:32.112Z,19.26
2023-09-03T20:21:01.281Z,19.25
2023-09-03T20:23:29.740Z,19.25
2023-09-03T20:26:02.732Z,19.22
2023-09-03T20:28:45.178Z,19.22
2023-09-03T20:31:15.964Z,19.16
2023-09-03T20:33:44.511Z,19.15
2023-09-03T20:36:12.816Z,19.11
2023-09-03T20:38:41.636Z,19.11
2023-09-03T20:41:09.678Z,19.10
2023-09-03T20:43:37.397Z,19.08
2023-09-03T20:46:05.047Z,19.10
2023-09-03T20:48:33.711Z,19.12
2023-09-03T20:51:02.903Z,19.19
2023-09-03T20:53:31.665Z,19.28
2023-09-03T20:56:00.425Z,19.33
2023-09-03T20:58:28.820Z,19.39
2023-09-03T21:00:56.631Z,19.35
2023-09-03T21:03:24.498Z,19.29
2023-09-03T21:05:53.455Z,19.22
2023-09-03T21:08:23.615Z,19.19
2023-09-03T21:10:58.845Z,19.18
2023-09-03T21:13:27.202Z,19.18
2023-09-03T21:15:56.889Z,19.18
2023-09-03T21:18:26.702Z,19.18
2023-09-03T21:20:59.973Z,19.14
2023-09-03T21:23:28.118Z,19.12
2023-09-03T21:25:56.032Z,19.12
2023-09-03T21:28:24.282Z,19.12
2023-09-03T21:30:52.411Z,19.18
2023-09-03T21:33:20.527Z,19.22
2023-09-03T21:35:48.594Z,19.23
2023-09-03T21:38:16.494Z,19.22
2023-09-03T21:40:44.591Z,19.19
2023-09-03T21:43:12.512Z,19.18
2023-09-03T21:45:40.662Z,19.15
2023-09-03T21:48:08.881Z,19.11
2023-09-03T21:50:36.830Z,19.05
2023-09-03T21:53:05.123Z,19.00
2023-09-03T21:55:33.200Z,18.97
2023-09-03T21:58:01.124Z,18.95
2023-09-03T22:00:29.023Z,18.90
2023-09-03T22:02:57.010Z,18.94
2023-09-03T22:05:25.165Z,18.94
2023-09-03T22:07:53.111Z,18.97
2023-09-03T22:10:20.980Z,19.00
2023-09-03T22:12:48.817Z,19.00
2023-09-03T22:15:16.657Z,19.00
2023-09-03T22:17:44.438Z,18.98
2023-09-03T22:20:12.833Z,18.98
2023-09-03T22:22:40.462Z,18.97
2023-09-03T22:25:08.311Z,18.97
2023-09-03T22:27:35.993Z,18.98
2023-09-03T22:30:04.505Z,19.05
2023-09-03T22:32:34.015Z,19.07
2023-09-03T22:35:01.894Z,19.01
2023-09-03T22:37:33.216Z,18.98
2023-09-03T22:40:01.800Z,18.90
2023-09-03T22:42:31.464Z,18.87
2023-09-03T22:44:59.126Z,18.85
2023-09-03T22:47:29.824Z,18.88
2023-09-03T22:49:57.502Z,18.90
2023-09-03T22:52:25.157Z,18.97
2023-09-03T22:54:52.950Z,19.02
2023-09-03T22:57:20.600Z,19.12
2023-09-03T22:59:48.159Z,19.19
2023-09-03T23:02:15.917Z,19.22
2023-09-03T23:04:43.753Z,19.26
2023-09-03T23:07:11.460Z,19.26
2023-09-03T23:09:39.057Z,19.25
2023-09-03T23:12:06.865Z,19.26
2023-09-03T23:14:34.613Z,19.25
2023-09-03T23:17:02.467Z,19.26
2023-09-03T23:19:30.175Z,19.28
2023-09-03T23:21:57.911Z,19.28
2023-09-03T23:24:25.516Z,19.26
2023-09-03T23:26:53.144Z,19.25
2023-09-03T23:29:20.886Z,19.23
2023-09-03T23:31:48.636Z,19.23
2023-09-03T23:34:17.332Z,19.23
2023-09-03T23:36:45.151Z,19.21
2023-09-03T23:39:12.767Z,19.19
2023-09-03T23:41:40.410Z,19.18
2023-09-03T23:44:08.274Z,19.19
2023-09-03T23:46:35.996Z,19.22
2023-09-03T23:49:03.755Z,19.19
2023-09-03T23:51:34.460Z,19.22
2023-09-03T23:54:05.253Z,19.22
2023-09-03T23:56:33.206Z,19.22
2023-09-03T23:59:00.857Z,19.21
